sensor_id;sensor_type;location;lat;lon;timestamp;temperature;humidity
25410;DHT22;13339;50.840;4.346;2023-02-11T00:00:13;10.00;99.90
25410;DHT22;13339;50.840;4.346;2023-02-11T00:02:40;10.00;99.90
25410;DHT22;13339;50.840;4.346;2023-02-11T00:05:06;10.00;99.90
25410;DHT22;13339;50.840;4.346;2023-02-11T00:07:32;9.90;99.90
25410;DHT22;13339;50.840;4.346;2023-02-11T00:09:58;9.90;99.90
25410;DHT22;13339;50.840;4.346;2023-02-11T00:12:24;9.70;99.90
25410;DHT22;13339;50.840;4.346;2023-02-11T00:14:51;9.70;99.90
25410;DHT22;13339;50.840;4.346;2023-02-11T00:17:17;9.70;99.90
25410;DHT22;13339;50.840;4.346;2023-02-11T00:19:42;9.60;99.90
25410;DHT22;13339;50.840;4.346;2023-02-11T00:22:08;9.60;99.90
25410;DHT22;13339;50.840;4.346;2023-02-11T00:24:35;9.60;99.90
25410;DHT22;13339;50.840;4.346;2023-02-11T00:27:01;9.60;99.90
25410;DHT22;13339;50.840;4.346;2023-02-11T00:29:26;9.50;99.90
25410;DHT22;13339;50.840;4.346;2023-02-11T00:31:52;9.50;99.90
25410;DHT22;13339;50.840;4.346;2023-02-11T00:34:18;9.50;99.90
25410;DHT22;13339;50.840;4.346;2023-02-11T00:36:43;9.40;99.90
25410;DHT22;13339;50.840;4.346;2023-02-11T00:39:09;9.50;99.90
25410;DHT22;13339;50.840;4.346;2023-02-11T00:41:35;9.50;99.90
25410;DHT22;13339;50.840;4.346;2023-02-11T00:44:01;9.40;99.90
25410;DHT22;13339;50.840;4.346;2023-02-11T00:46:27;9.50;99.90
25410;DHT22;13339;50.840;4.346;2023-02-11T00:48:53;9.50;99.90
25410;DHT22;13339;50.840;4.346;2023-02-11T00:51:24;9.50;99.90
25410;DHT22;13339;50.840;4.346;2023-02-11T00:53:50;9.30;99.90
25410;DHT22;13339;50.840;4.346;2023-02-11T00:56:15;9.40;99.90
25410;DHT22;13339;50.840;4.346;2023-02-11T00:58:41;9.40;99.90
25410;DHT22;13339;50.840;4.346;2023-02-11T01:01:06;9.40;99.90
25410;DHT22;13339;50.840;4.346;2023-02-11T01:03:33;9.30;99.90
25410;DHT22;13339;50.840;4.346;2023-02-11T01:05:58;9.30;99.90
25410;DHT22;13339;50.840;4.346;2023-02-11T01:08:24;9.30;99.90
25410;DHT22;13339;50.840;4.346;2023-02-11T01:10:55;9.20;99.90
25410;DHT22;13339;50.840;4.346;2023-02-11T01:13:21;9.40;99.90
25410;DHT22;13339;50.840;4.346;2023-02-11T01:15:47;9.40;99.90
25410;DHT22;13339;50.840;4.346;2023-02-11T01:18:12;9.40;99.90
25410;DHT22;13339;50.840;4.346;2023-02-11T01:20:38;9.40;99.90
25410;DHT22;13339;50.840;4.346;2023-02-11T01:23:04;9.30;99.90
25410;DHT22;13339;50.840;4.346;2023-02-11T01:25:29;9.30;99.90
25410;DHT22;13339;50.840;4.346;2023-02-11T01:27:55;9.30;99.90
25410;DHT22;13339;50.840;4.346;2023-02-11T01:30:20;9.30;99.90
25410;DHT22;13339;50.840;4.346;2023-02-11T01:32:46;9.30;99.90
25410;DHT22;13339;50.840;4.346;2023-02-11T01:35:11;9.20;99.90
25410;DHT22;13339;50.840;4.346;2023-02-11T01:37:37;9.20;99.90
25410;DHT22;13339;50.840;4.346;2023-02-11T01:40:04;9.20;99.90
25410;DHT22;13339;50.840;4.346;2023-02-11T01:42:31;9.20;99.90
25410;DHT22;13339;50.840;4.346;2023-02-11T01:44:57;9.10;99.90
25410;DHT22;13339;50.840;4.346;2023-02-11T01:47:24;9.20;99.90
25410;DHT22;13339;50.840;4.346;2023-02-11T01:49:54;9.20;99.90
25410;DHT22;13339;50.840;4.346;2023-02-11T01:52:25;9.20;99.90
25410;DHT22;13339;50.840;4.346;2023-02-11T01:54:54;9.30;99.90
25410;DHT22;13339;50.840;4.346;2023-02-11T01:57:44;9.20;99.90
25410;DHT22;13339;50.840;4.346;2023-02-11T02:02:59;9.20;99.90
25410;DHT22;13339;50.840;4.346;2023-02-11T02:08:18;9.00;99.90
25410;DHT22;13339;50.840;4.346;2023-02-11T02:10:48;9.00;99.90
25410;DHT22;13339;50.840;4.346;2023-02-11T02:13:14;9.00;99.90
25410;DHT22;13339;50.840;4.346;2023-02-11T02:15:45;9.10;99.90
25410;DHT22;13339;50.840;4.346;2023-02-11T02:32:57;9.50;99.90
25410;DHT22;13339;50.840;4.346;2023-02-11T02:35:52;9.50;99.90
25410;DHT22;13339;50.840;4.346;2023-02-11T02:41:11;9.60;99.90
25410;DHT22;13339;50.840;4.346;2023-02-11T02:43:40;9.50;99.90
25410;DHT22;13339;50.840;4.346;2023-02-11T02:46:21;9.50;99.90
25410;DHT22;13339;50.840;4.346;2023-02-11T02:48:48;9.50;99.90
25410;DHT22;13339;50.840;4.346;2023-02-11T03:02:38;9.70;99.90
25410;DHT22;13339;50.840;4.346;2023-02-11T03:07:55;9.60;99.90
25410;DHT22;13339;50.840;4.346;2023-02-11T03:10:33;9.60;99.90
25410;DHT22;13339;50.840;4.346;2023-02-11T03:13:01;9.60;99.90
25410;DHT22;13339;50.840;4.346;2023-02-11T03:15:30;9.70;99.90
25410;DHT22;13339;50.840;4.346;2023-02-11T03:18:00;9.80;99.90
25410;DHT22;13339;50.840;4.346;2023-02-11T03:20:27;9.70;99.90
25410;DHT22;13339;50.840;4.346;2023-02-11T03:23:00;9.60;99.90
25410;DHT22;13339;50.840;4.346;2023-02-11T03:25:29;9.70;99.90
25410;DHT22;13339;50.840;4.346;2023-02-11T03:28:03;9.70;99.90
25410;DHT22;13339;50.840;4.346;2023-02-11T03:30:55;9.80;99.90
25410;DHT22;13339;50.840;4.346;2023-02-11T03:33:32;9.80;99.90
25410;DHT22;13339;50.840;4.346;2023-02-11T03:36:03;9.80;99.90
25410;DHT22;13339;50.840;4.346;2023-02-11T03:38:37;9.80;99.90
25410;DHT22;13339;50.840;4.346;2023-02-11T03:41:06;9.80;99.90
25410;DHT22;13339;50.840;4.346;2023-02-11T03:43:39;9.70;99.90
25410;DHT22;13339;50.840;4.346;2023-02-11T03:46:07;9.70;99.90
25410;DHT22;13339;50.840;4.346;2023-02-11T03:48:37;9.70;99.90
25410;DHT22;13339;50.840;4.346;2023-02-11T03:51:06;9.60;99.90
25410;DHT22;13339;50.840;4.346;2023-02-11T03:53:35;9.70;99.90
25410;DHT22;13339;50.840;4.346;2023-02-11T03:56:06;9.80;99.90
25410;DHT22;13339;50.840;4.346;2023-02-11T03:58:33;9.60;99.90
25410;DHT22;13339;50.840;4.346;2023-02-11T04:00:59;9.70;99.90
25410;DHT22;13339;50.840;4.346;2023-02-11T04:03:26;9.80;99.90
25410;DHT22;13339;50.840;4.346;2023-02-11T04:05:52;9.80;99.90
25410;DHT22;13339;50.840;4.346;2023-02-11T04:08:19;9.80;99.90
25410;DHT22;13339;50.840;4.346;2023-02-11T04:10:44;9.80;99.90
25410;DHT22;13339;50.840;4.346;2023-02-11T04:13:10;9.80;99.90
25410;DHT22;13339;50.840;4.346;2023-02-11T04:15:36;9.80;99.90
25410;DHT22;13339;50.840;4.346;2023-02-11T04:18:02;9.80;99.90
25410;DHT22;13339;50.840;4.346;2023-02-11T04:20:28;9.70;99.90
25410;DHT22;13339;50.840;4.346;2023-02-11T04:22:53;9.80;99.90
25410;DHT22;13339;50.840;4.346;2023-02-11T04:25:19;9.70;99.90
25410;DHT22;13339;50.840;4.346;2023-02-11T04:27:45;9.70;99.90
25410;DHT22;13339;50.840;4.346;2023-02-11T04:30:11;9.80;99.90
25410;DHT22;13339;50.840;4.346;2023-02-11T04:32:36;9.80;99.90
25410;DHT22;13339;50.840;4.346;2023-02-11T04:35:02;9.90;99.90
25410;DHT22;13339;50.840;4.346;2023-02-11T04:37:28;9.90;99.90
25410;DHT22;13339;50.840;4.346;2023-02-11T04:39:54;9.90;99.90
25410;DHT22;13339;50.840;4.346;2023-02-11T04:42:19;10.00;99.90
25410;DHT22;13339;50.840;4.346;2023-02-11T04:44:45;10.10;99.90
25410;DHT22;13339;50.840;4.346;2023-02-11T04:47:10;10.10;99.90
25410;DHT22;13339;50.840;4.346;2023-02-11T04:49:37;10.10;99.90
25410;DHT22;13339;50.840;4.346;2023-02-11T04:52:03;10.20;99.90
25410;DHT22;13339;50.840;4.346;2023-02-11T04:54:29;10.20;99.90
25410;DHT22;13339;50.840;4.346;2023-02-11T04:56:55;10.20;99.90
25410;DHT22;13339;50.840;4.346;2023-02-11T04:59:20;10.30;99.90
25410;DHT22;13339;50.840;4.346;2023-02-11T05:01:46;10.30;99.90
25410;DHT22;13339;50.840;4.346;2023-02-11T05:04:11;10.30;99.90
25410;DHT22;13339;50.840;4.346;2023-02-11T05:06:38;10.30;99.90
25410;DHT22;13339;50.840;4.346;2023-02-11T05:09:04;10.30;99.90
25410;DHT22;13339;50.840;4.346;2023-02-11T05:11:29;10.30;99.90
25410;DHT22;13339;50.840;4.346;2023-02-11T05:13:55;10.40;99.90
25410;DHT22;13339;50.840;4.346;2023-02-11T05:16:21;10.20;99.90
25410;DHT22;13339;50.840;4.346;2023-02-11T05:18:46;10.10;99.90
25410;DHT22;13339;50.840;4.346;2023-02-11T05:21:15;10.20;99.90
25410;DHT22;13339;50.840;4.346;2023-02-11T05:23:41;10.20;99.90
25410;DHT22;13339;50.840;4.346;2023-02-11T05:26:08;10.10;99.90
25410;DHT22;13339;50.840;4.346;2023-02-11T05:28:34;10.00;99.90
25410;DHT22;13339;50.840;4.346;2023-02-11T05:31:00;9.90;99.90
25410;DHT22;13339;50.840;4.346;2023-02-11T05:33:26;9.70;99.90
25410;DHT22;13339;50.840;4.346;2023-02-11T05:35:56;9.80;99.90
25410;DHT22;13339;50.840;4.346;2023-02-11T05:38:22;9.80;99.90
25410;DHT22;13339;50.840;4.346;2023-02-11T05:40:47;9.80;99.90
25410;DHT22;13339;50.840;4.346;2023-02-11T05:43:13;9.90;99.90
25410;DHT22;13339;50.840;4.346;2023-02-11T05:45:38;9.90;99.90
25410;DHT22;13339;50.840;4.346;2023-02-11T05:48:04;10.00;99.90
25410;DHT22;13339;50.840;4.346;2023-02-11T05:50:29;9.90;99.90
25410;DHT22;13339;50.840;4.346;2023-02-11T05:52:55;9.90;99.90
25410;DHT22;13339;50.840;4.346;2023-02-11T05:55:20;9.90;99.90
25410;DHT22;13339;50.840;4.346;2023-02-11T05:57:46;10.00;99.90
25410;DHT22;13339;50.840;4.346;2023-02-11T06:00:12;10.10;99.90
25410;DHT22;13339;50.840;4.346;2023-02-11T06:02:38;10.10;99.90
25410;DHT22;13339;50.840;4.346;2023-02-11T06:05:04;10.10;99.90
25410;DHT22;13339;50.840;4.346;2023-02-11T06:07:30;10.10;99.90
25410;DHT22;13339;50.840;4.346;2023-02-11T06:09:56;10.10;99.90
25410;DHT22;13339;50.840;4.346;2023-02-11T06:12:22;10.00;99.90
25410;DHT22;13339;50.840;4.346;2023-02-11T06:14:47;10.10;99.90
25410;DHT22;13339;50.840;4.346;2023-02-11T06:17:13;10.10;99.90
25410;DHT22;13339;50.840;4.346;2023-02-11T06:19:38;10.10;99.90
25410;DHT22;13339;50.840;4.346;2023-02-11T06:22:04;10.10;99.90
25410;DHT22;13339;50.840;4.346;2023-02-11T06:24:29;10.20;99.90
25410;DHT22;13339;50.840;4.346;2023-02-11T06:26:55;10.30;99.90
25410;DHT22;13339;50.840;4.346;2023-02-11T06:29:21;10.30;99.90
25410;DHT22;13339;50.840;4.346;2023-02-11T06:31:46;10.30;99.90
25410;DHT22;13339;50.840;4.346;2023-02-11T06:34:12;10.30;99.90
25410;DHT22;13339;50.840;4.346;2023-02-11T06:36:38;10.20;99.90
25410;DHT22;13339;50.840;4.346;2023-02-11T06:39:04;10.20;99.90
25410;DHT22;13339;50.840;4.346;2023-02-11T06:41:29;10.30;99.90
25410;DHT22;13339;50.840;4.346;2023-02-11T06:43:55;10.30;99.90
25410;DHT22;13339;50.840;4.346;2023-02-11T06:46:21;10.20;99.90
25410;DHT22;13339;50.840;4.346;2023-02-11T06:48:46;10.20;99.90
25410;DHT22;13339;50.840;4.346;2023-02-11T06:51:13;10.10;99.90
25410;DHT22;13339;50.840;4.346;2023-02-11T06:53:44;10.20;99.90
25410;DHT22;13339;50.840;4.346;2023-02-11T06:56:13;10.10;99.90
25410;DHT22;13339;50.840;4.346;2023-02-11T06:58:39;10.20;99.90
25410;DHT22;13339;50.840;4.346;2023-02-11T07:01:06;10.30;99.90
25410;DHT22;13339;50.840;4.346;2023-02-11T07:03:35;10.30;99.90
25410;DHT22;13339;50.840;4.346;2023-02-11T07:06:03;10.30;99.90
25410;DHT22;13339;50.840;4.346;2023-02-11T07:08:30;10.20;99.90
25410;DHT22;13339;50.840;4.346;2023-02-11T07:10:55;10.30;99.90
25410;DHT22;13339;50.840;4.346;2023-02-11T07:13:21;10.40;99.90
25410;DHT22;13339;50.840;4.346;2023-02-11T07:15:46;10.40;99.90
25410;DHT22;13339;50.840;4.346;2023-02-11T07:18:12;10.40;99.90
25410;DHT22;13339;50.840;4.346;2023-02-11T07:20:38;10.40;99.90
25410;DHT22;13339;50.840;4.346;2023-02-11T07:23:03;10.40;99.90
25410;DHT22;13339;50.840;4.346;2023-02-11T07:25:29;10.40;99.90
25410;DHT22;13339;50.840;4.346;2023-02-11T07:27:55;10.40;99.90
25410;DHT22;13339;50.840;4.346;2023-02-11T07:30:20;10.50;99.90
25410;DHT22;13339;50.840;4.346;2023-02-11T07:32:47;10.50;99.90
25410;DHT22;13339;50.840;4.346;2023-02-11T07:35:12;10.60;99.90
25410;DHT22;13339;50.840;4.346;2023-02-11T07:37:39;10.60;99.90
25410;DHT22;13339;50.840;4.346;2023-02-11T07:40:06;10.50;99.90
25410;DHT22;13339;50.840;4.346;2023-02-11T07:42:33;10.50;99.90
25410;DHT22;13339;50.840;4.346;2023-02-11T07:44:59;10.50;99.90
25410;DHT22;13339;50.840;4.346;2023-02-11T07:47:25;10.60;99.90
25410;DHT22;13339;50.840;4.346;2023-02-11T07:49:51;10.70;99.90
25410;DHT22;13339;50.840;4.346;2023-02-11T07:52:16;10.60;99.90
25410;DHT22;13339;50.840;4.346;2023-02-11T07:54:42;10.70;99.90
25410;DHT22;13339;50.840;4.346;2023-02-11T07:57:08;10.70;99.90
25410;DHT22;13339;50.840;4.346;2023-02-11T07:59:33;10.70;99.90
25410;DHT22;13339;50.840;4.346;2023-02-11T08:01:59;10.70;99.90
25410;DHT22;13339;50.840;4.346;2023-02-11T08:04:24;10.50;99.90
25410;DHT22;13339;50.840;4.346;2023-02-11T08:06:50;10.70;99.90
25410;DHT22;13339;50.840;4.346;2023-02-11T08:09:17;10.70;99.90
25410;DHT22;13339;50.840;4.346;2023-02-11T08:11:43;10.70;99.90
25410;DHT22;13339;50.840;4.346;2023-02-11T08:14:09;10.70;99.90
25410;DHT22;13339;50.840;4.346;2023-02-11T08:16:36;10.60;99.90
25410;DHT22;13339;50.840;4.346;2023-02-11T08:19:15;10.70;99.90
25410;DHT22;13339;50.840;4.346;2023-02-11T08:21:41;10.70;99.90
25410;DHT22;13339;50.840;4.346;2023-02-11T08:24:07;10.60;99.90
25410;DHT22;13339;50.840;4.346;2023-02-11T08:26:34;10.70;99.90
25410;DHT22;13339;50.840;4.346;2023-02-11T08:29:02;10.70;99.90
25410;DHT22;13339;50.840;4.346;2023-02-11T08:31:33;10.80;99.90
25410;DHT22;13339;50.840;4.346;2023-02-11T08:34:00;10.90;99.90
25410;DHT22;13339;50.840;4.346;2023-02-11T08:36:32;10.80;99.90
25410;DHT22;13339;50.840;4.346;2023-02-11T08:38:59;10.80;99.90
25410;DHT22;13339;50.840;4.346;2023-02-11T08:41:28;10.90;99.90
25410;DHT22;13339;50.840;4.346;2023-02-11T08:43:54;10.70;99.90
25410;DHT22;13339;50.840;4.346;2023-02-11T08:46:20;10.70;99.90
25410;DHT22;13339;50.840;4.346;2023-02-11T08:48:46;10.70;99.90
25410;DHT22;13339;50.840;4.346;2023-02-11T08:51:15;10.70;99.90
25410;DHT22;13339;50.840;4.346;2023-02-11T08:53:40;10.80;99.90
25410;DHT22;13339;50.840;4.346;2023-02-11T08:56:09;10.70;99.90
25410;DHT22;13339;50.840;4.346;2023-02-11T08:58:35;10.80;99.90
25410;DHT22;13339;50.840;4.346;2023-02-11T09:01:01;10.80;99.90
25410;DHT22;13339;50.840;4.346;2023-02-11T09:03:27;10.70;99.90
25410;DHT22;13339;50.840;4.346;2023-02-11T09:05:52;10.60;99.90
25410;DHT22;13339;50.840;4.346;2023-02-11T09:08:19;10.80;99.90
25410;DHT22;13339;50.840;4.346;2023-02-11T09:10:45;10.90;99.90
25410;DHT22;13339;50.840;4.346;2023-02-11T09:13:11;10.90;99.90
25410;DHT22;13339;50.840;4.346;2023-02-11T09:15:37;10.90;99.90
25410;DHT22;13339;50.840;4.346;2023-02-11T09:18:03;11.00;99.90
25410;DHT22;13339;50.840;4.346;2023-02-11T09:20:29;11.00;99.90
25410;DHT22;13339;50.840;4.346;2023-02-11T09:22:57;10.90;99.90
25410;DHT22;13339;50.840;4.346;2023-02-11T09:25:23;10.90;99.90
25410;DHT22;13339;50.840;4.346;2023-02-11T09:27:48;10.90;99.90
25410;DHT22;13339;50.840;4.346;2023-02-11T09:30:15;10.90;99.90
25410;DHT22;13339;50.840;4.346;2023-02-11T09:32:41;11.00;99.90
25410;DHT22;13339;50.840;4.346;2023-02-11T09:35:07;11.00;99.90
25410;DHT22;13339;50.840;4.346;2023-02-11T09:37:32;11.00;99.90
25410;DHT22;13339;50.840;4.346;2023-02-11T09:39:58;11.00;99.90
25410;DHT22;13339;50.840;4.346;2023-02-11T09:45:24;11.00;99.90
25410;DHT22;13339;50.840;4.346;2023-02-11T09:47:59;11.00;99.90
25410;DHT22;13339;50.840;4.346;2023-02-11T09:50:28;11.00;99.90
25410;DHT22;13339;50.840;4.346;2023-02-11T09:55:40;11.20;99.90
25410;DHT22;13339;50.840;4.346;2023-02-11T09:58:13;11.30;99.90
25410;DHT22;13339;50.840;4.346;2023-02-11T10:01:03;11.30;99.90
25410;DHT22;13339;50.840;4.346;2023-02-11T10:12:12;11.30;99.90
25410;DHT22;13339;50.840;4.346;2023-02-11T10:22:56;11.60;99.90
25410;DHT22;13339;50.840;4.346;2023-02-11T10:28:18;11.50;99.90
25410;DHT22;13339;50.840;4.346;2023-02-11T10:31:07;11.50;99.90
25410;DHT22;13339;50.840;4.346;2023-02-11T10:33:45;11.60;99.90
25410;DHT22;13339;50.840;4.346;2023-02-11T10:36:12;11.40;99.90
25410;DHT22;13339;50.840;4.346;2023-02-11T10:38:38;11.50;99.90
25410;DHT22;13339;50.840;4.346;2023-02-11T10:41:04;11.50;99.90
25410;DHT22;13339;50.840;4.346;2023-02-11T10:43:31;11.70;99.90
25410;DHT22;13339;50.840;4.346;2023-02-11T10:45:59;11.70;99.90
25410;DHT22;13339;50.840;4.346;2023-02-11T10:48:44;11.70;99.90
25410;DHT22;13339;50.840;4.346;2023-02-11T10:53:46;11.80;99.90
25410;DHT22;13339;50.840;4.346;2023-02-11T10:56:28;11.90;99.90
25410;DHT22;13339;50.840;4.346;2023-02-11T10:59:01;11.90;99.90
25410;DHT22;13339;50.840;4.346;2023-02-11T11:01:47;12.00;99.90
25410;DHT22;13339;50.840;4.346;2023-02-11T11:06:54;12.00;99.90
25410;DHT22;13339;50.840;4.346;2023-02-11T11:09:34;12.00;99.90
25410;DHT22;13339;50.840;4.346;2023-02-11T11:17:36;12.00;99.90
25410;DHT22;13339;50.840;4.346;2023-02-11T11:22:42;12.00;99.90
25410;DHT22;13339;50.840;4.346;2023-02-11T11:25:27;12.00;99.90
25410;DHT22;13339;50.840;4.346;2023-02-11T11:27:58;12.00;99.90
25410;DHT22;13339;50.840;4.346;2023-02-11T11:30:32;12.00;99.90
25410;DHT22;13339;50.840;4.346;2023-02-11T11:32:59;11.90;99.90
25410;DHT22;13339;50.840;4.346;2023-02-11T11:35:27;11.90;99.90
25410;DHT22;13339;50.840;4.346;2023-02-11T11:37:56;11.90;99.90
25410;DHT22;13339;50.840;4.346;2023-02-11T11:40:31;12.00;99.90
25410;DHT22;13339;50.840;4.346;2023-02-11T11:43:15;12.10;99.90
25410;DHT22;13339;50.840;4.346;2023-02-11T11:45:54;12.10;99.90
25410;DHT22;13339;50.840;4.346;2023-02-11T11:48:27;12.20;99.90
25410;DHT22;13339;50.840;4.346;2023-02-11T11:50:56;12.20;99.90
25410;DHT22;13339;50.840;4.346;2023-02-11T11:58:30;12.30;99.90
25410;DHT22;13339;50.840;4.346;2023-02-11T12:09:49;12.20;99.90
25410;DHT22;13339;50.840;4.346;2023-02-11T12:12:42;12.30;99.90
25410;DHT22;13339;50.840;4.346;2023-02-11T12:18:16;12.20;99.90
25410;DHT22;13339;50.840;4.346;2023-02-11T12:26:59;12.40;99.90
25410;DHT22;13339;50.840;4.346;2023-02-11T12:35:35;12.40;99.90
25410;DHT22;13339;50.840;4.346;2023-02-11T12:38:30;12.40;99.90
25410;DHT22;13339;50.840;4.346;2023-02-11T12:43:38;12.50;99.90
25410;DHT22;13339;50.840;4.346;2023-02-11T12:54:22;12.70;99.90
25410;DHT22;13339;50.840;4.346;2023-02-11T12:56:56;12.80;99.90
25410;DHT22;13339;50.840;4.346;2023-02-11T12:59:37;12.90;99.90
25410;DHT22;13339;50.840;4.346;2023-02-11T13:02:20;12.90;99.90
25410;DHT22;13339;50.840;4.346;2023-02-11T13:04:52;12.80;99.90
25410;DHT22;13339;50.840;4.346;2023-02-11T13:07:34;12.80;99.90
25410;DHT22;13339;50.840;4.346;2023-02-11T13:10:23;12.80;99.90
25410;DHT22;13339;50.840;4.346;2023-02-11T13:12:51;12.80;99.90
25410;DHT22;13339;50.840;4.346;2023-02-11T13:15:36;12.90;99.90
25410;DHT22;13339;50.840;4.346;2023-02-11T13:18:44;13.00;99.90
25410;DHT22;13339;50.840;4.346;2023-02-11T13:21:22;12.90;99.90
25410;DHT22;13339;50.840;4.346;2023-02-11T13:29:38;13.00;99.90
25410;DHT22;13339;50.840;4.346;2023-02-11T13:31:41;13.00;99.90
25410;DHT22;13339;50.840;4.346;2023-02-11T13:34:52;12.90;99.90
25410;DHT22;13339;50.840;4.346;2023-02-11T13:37:34;13.00;99.90
25410;DHT22;13339;50.840;4.346;2023-02-11T13:40:05;13.00;99.90
25410;DHT22;13339;50.840;4.346;2023-02-11T13:42:33;13.00;99.90
25410;DHT22;13339;50.840;4.346;2023-02-11T13:47:56;13.00;99.90
25410;DHT22;13339;50.840;4.346;2023-02-11T13:50:23;13.00;99.90
25410;DHT22;13339;50.840;4.346;2023-02-11T13:52:57;13.00;99.90
25410;DHT22;13339;50.840;4.346;2023-02-11T13:55:24;12.90;99.90
25410;DHT22;13339;50.840;4.346;2023-02-11T14:14:28;12.90;99.90
25410;DHT22;13339;50.840;4.346;2023-02-11T14:19:36;13.10;99.90
25410;DHT22;13339;50.840;4.346;2023-02-11T14:24:44;13.20;99.90
25410;DHT22;13339;50.840;4.346;2023-02-11T14:27:30;13.20;99.90
25410;DHT22;13339;50.840;4.346;2023-02-11T14:33:11;13.20;99.90
25410;DHT22;13339;50.840;4.346;2023-02-11T14:36:04;13.20;99.90
25410;DHT22;13339;50.840;4.346;2023-02-11T14:41:37;13.00;99.90
25410;DHT22;13339;50.840;4.346;2023-02-11T14:44:06;13.00;99.90
25410;DHT22;13339;50.840;4.346;2023-02-11T14:46:33;13.10;99.90
25410;DHT22;13339;50.840;4.346;2023-02-11T14:49:01;13.20;99.90
25410;DHT22;13339;50.840;4.346;2023-02-11T14:51:38;13.10;99.90
25410;DHT22;13339;50.840;4.346;2023-02-11T14:54:12;13.20;99.90
25410;DHT22;13339;50.840;4.346;2023-02-11T14:56:39;13.20;99.90
25410;DHT22;13339;50.840;4.346;2023-02-11T14:59:18;13.20;99.90
25410;DHT22;13339;50.840;4.346;2023-02-11T15:01:48;13.10;99.90
25410;DHT22;13339;50.840;4.346;2023-02-11T15:04:23;13.20;99.90
25410;DHT22;13339;50.840;4.346;2023-02-11T15:06:50;13.30;99.90
25410;DHT22;13339;50.840;4.346;2023-02-11T15:10:02;13.20;99.90
25410;DHT22;13339;50.840;4.346;2023-02-11T15:12:22;13.20;99.90
25410;DHT22;13339;50.840;4.346;2023-02-11T15:14:52;13.20;99.90
25410;DHT22;13339;50.840;4.346;2023-02-11T15:17:22;13.30;99.90
25410;DHT22;13339;50.840;4.346;2023-02-11T15:19:52;13.40;99.90
25410;DHT22;13339;50.840;4.346;2023-02-11T15:22:21;13.40;99.90
25410;DHT22;13339;50.840;4.346;2023-02-11T15:24:59;13.40;99.90
25410;DHT22;13339;50.840;4.346;2023-02-11T15:27:24;13.30;99.90
25410;DHT22;13339;50.840;4.346;2023-02-11T15:29:51;13.20;99.90
25410;DHT22;13339;50.840;4.346;2023-02-11T15:32:20;13.40;99.90
25410;DHT22;13339;50.840;4.346;2023-02-11T15:34:47;13.40;99.90
25410;DHT22;13339;50.840;4.346;2023-02-11T15:37:22;13.40;99.90
25410;DHT22;13339;50.840;4.346;2023-02-11T15:39:48;13.40;99.90
25410;DHT22;13339;50.840;4.346;2023-02-11T15:42:26;13.40;99.90
25410;DHT22;13339;50.840;4.346;2023-02-11T15:45:21;13.50;99.90
25410;DHT22;13339;50.840;4.346;2023-02-11T15:47:52;13.60;99.90
25410;DHT22;13339;50.840;4.346;2023-02-11T15:50:29;13.60;99.90
25410;DHT22;13339;50.840;4.346;2023-02-11T15:52:57;13.60;99.90
25410;DHT22;13339;50.840;4.346;2023-02-11T15:55:25;13.70;99.90
25410;DHT22;13339;50.840;4.346;2023-02-11T15:57:59;13.70;99.90
25410;DHT22;13339;50.840;4.346;2023-02-11T16:00:45;13.70;99.90
25410;DHT22;13339;50.840;4.346;2023-02-11T16:03:23;13.80;99.90
25410;DHT22;13339;50.840;4.346;2023-02-11T16:05:49;13.80;99.90
25410;DHT22;13339;50.840;4.346;2023-02-11T16:11:03;13.90;99.90
25410;DHT22;13339;50.840;4.346;2023-02-11T16:13:44;13.80;99.90
25410;DHT22;13339;50.840;4.346;2023-02-11T16:16:18;13.80;99.90
25410;DHT22;13339;50.840;4.346;2023-02-11T16:18:53;13.80;99.90
25410;DHT22;13339;50.840;4.346;2023-02-11T16:21:26;13.70;99.90
25410;DHT22;13339;50.840;4.346;2023-02-11T16:23:55;13.70;99.90
25410;DHT22;13339;50.840;4.346;2023-02-11T16:26:37;13.60;99.90
25410;DHT22;13339;50.840;4.346;2023-02-11T16:29:13;13.70;99.90
25410;DHT22;13339;50.840;4.346;2023-02-11T16:31:42;13.60;99.90
25410;DHT22;13339;50.840;4.346;2023-02-11T16:34:17;13.50;99.90
25410;DHT22;13339;50.840;4.346;2023-02-11T16:36:43;13.60;99.90
25410;DHT22;13339;50.840;4.346;2023-02-11T16:39:09;13.60;99.90
25410;DHT22;13339;50.840;4.346;2023-02-11T16:41:35;13.60;99.90
25410;DHT22;13339;50.840;4.346;2023-02-11T16:44:00;13.70;99.90
25410;DHT22;13339;50.840;4.346;2023-02-11T16:46:26;13.60;99.90
25410;DHT22;13339;50.840;4.346;2023-02-11T16:48:53;13.60;99.90
25410;DHT22;13339;50.840;4.346;2023-02-11T16:51:19;13.60;99.90
25410;DHT22;13339;50.840;4.346;2023-02-11T16:53:45;13.60;99.90
25410;DHT22;13339;50.840;4.346;2023-02-11T16:56:13;13.50;99.90
25410;DHT22;13339;50.840;4.346;2023-02-11T16:58:40;13.50;99.90
25410;DHT22;13339;50.840;4.346;2023-02-11T17:01:06;13.50;99.90
25410;DHT22;13339;50.840;4.346;2023-02-11T17:03:32;13.50;99.90
25410;DHT22;13339;50.840;4.346;2023-02-11T17:06:08;13.60;99.90
25410;DHT22;13339;50.840;4.346;2023-02-11T17:08:34;13.70;99.90
25410;DHT22;13339;50.840;4.346;2023-02-11T17:11:01;13.70;99.90
25410;DHT22;13339;50.840;4.346;2023-02-11T17:13:27;13.70;99.90
25410;DHT22;13339;50.840;4.346;2023-02-11T17:15:53;13.70;99.90
25410;DHT22;13339;50.840;4.346;2023-02-11T17:18:18;13.70;99.90
25410;DHT22;13339;50.840;4.346;2023-02-11T17:20:44;13.70;99.90
25410;DHT22;13339;50.840;4.346;2023-02-11T17:23:10;13.80;99.90
25410;DHT22;13339;50.840;4.346;2023-02-11T17:25:36;13.80;99.90
25410;DHT22;13339;50.840;4.346;2023-02-11T17:28:03;13.80;99.90
25410;DHT22;13339;50.840;4.346;2023-02-11T17:30:28;13.80;99.90
25410;DHT22;13339;50.840;4.346;2023-02-11T17:32:54;13.80;99.90
25410;DHT22;13339;50.840;4.346;2023-02-11T17:35:20;13.60;99.90
25410;DHT22;13339;50.840;4.346;2023-02-11T17:37:45;13.50;99.90
25410;DHT22;13339;50.840;4.346;2023-02-11T17:40:12;13.50;99.90
25410;DHT22;13339;50.840;4.346;2023-02-11T17:42:38;13.30;99.90
25410;DHT22;13339;50.840;4.346;2023-02-11T17:45:03;13.30;99.90
25410;DHT22;13339;50.840;4.346;2023-02-11T17:47:29;13.30;99.90
25410;DHT22;13339;50.840;4.346;2023-02-11T17:49:55;13.40;99.90
25410;DHT22;13339;50.840;4.346;2023-02-11T17:52:20;13.30;99.90
25410;DHT22;13339;50.840;4.346;2023-02-11T17:54:48;13.20;99.90
25410;DHT22;13339;50.840;4.346;2023-02-11T17:57:14;13.30;99.90
25410;DHT22;13339;50.840;4.346;2023-02-11T17:59:40;13.30;99.90
25410;DHT22;13339;50.840;4.346;2023-02-11T18:02:06;13.20;99.90
25410;DHT22;13339;50.840;4.346;2023-02-11T18:04:34;13.20;99.90
25410;DHT22;13339;50.840;4.346;2023-02-11T18:07:00;13.20;99.90
25410;DHT22;13339;50.840;4.346;2023-02-11T18:09:26;13.20;99.90
25410;DHT22;13339;50.840;4.346;2023-02-11T18:11:52;13.20;99.90
25410;DHT22;13339;50.840;4.346;2023-02-11T18:14:19;13.30;99.90
25410;DHT22;13339;50.840;4.346;2023-02-11T18:16:47;13.40;99.90
25410;DHT22;13339;50.840;4.346;2023-02-11T18:19:13;13.30;99.90
25410;DHT22;13339;50.840;4.346;2023-02-11T18:21:39;13.30;99.90